Time;durP1;ratioP1;P1;durP2;ratioP2;P2;SDS_P1;SDS_P2;PMS_P1;PMS_P2;Temp;Humidity;BMP_temperature;BMP_pressure;BME280_temperature;BME280_humidity;BME280_pressure;Samples;Min_cycle;Max_cycle;Signal;HPM_P1;HPM_P2
2021/11/20 00:01:16;;;;;;;;;19.00;17.00;;;;;12.96;67.35;102724.16;5070800;28;45242;-79
2021/11/20 00:03:45;;;;;;;;;23.33;16.67;;;;;12.91;67.63;102699.25;5068905;28;45567;-79
2021/11/20 00:06:35;;;;;;;;;15.33;15.33;;;;;12.94;67.34;102715.22;5063138;28;47583;-80
2021/11/20 00:09:02;;;;;;;;;18.00;16.67;;;;;12.96;67.54;102721.50;5059645;28;45460;-79
2021/11/20 00:11:29;;;;;;;;;19.00;15.33;;;;;12.95;67.66;102711.75;5064943;28;45497;-80
2021/11/20 00:13:54;;;;;;;;;18.33;16.00;;;;;12.93;67.69;102704.56;5021360;28;45714;-79
2021/11/20 00:16:21;;;;;;;;;20.33;17.33;;;;;12.97;67.73;102710.03;5066697;28;68560;-80
2021/11/20 00:18:46;;;;;;;;;15.67;14.00;;;;;12.98;67.66;102706.53;5044761;28;45471;-80
2021/11/20 00:21:15;;;;;;;;;21.33;18.33;;;;;13.00;67.56;102712.78;5057063;28;45416;-80
2021/11/20 00:23:43;;;;;;;;;22.00;18.67;;;;;13.00;67.50;102709.25;5041621;28;45251;-81
2021/11/20 00:26:10;;;;;;;;;15.00;14.00;;;;;12.98;67.48;102700.31;5063952;28;46908;-79
2021/11/20 00:29:03;;;;;;;;;16.00;13.67;;;;;13.00;67.50;102703.94;5046812;28;45693;-80
2021/11/20 00:31:30;;;;;;;;;12.33;12.00;;;;;13.01;67.35;102696.03;5054221;28;45629;-81
2021/11/20 00:33:56;;;;;;;;;19.00;14.00;;;;;13.01;67.50;102696.03;5044759;28;45571;-81
2021/11/20 00:36:21;;;;;;;;;19.67;12.33;;;;;12.96;67.36;102691.44;5057069;28;47155;-80
2021/11/20 00:38:47;;;;;;;;;14.67;11.67;;;;;12.96;67.23;102684.38;5040696;28;45469;-81
2021/11/20 00:41:17;;;;;;;;;12.00;11.67;;;;;12.92;67.45;102677.16;5068911;28;45324;-80
2021/11/20 00:43:44;;;;;;;;;15.67;12.33;;;;;12.95;67.28;102687.88;5051027;28;45559;-80
2021/11/20 00:46:09;;;;;;;;;13.00;13.00;;;;;12.91;67.51;102680.69;5063412;28;46502;-80
2021/11/20 00:48:35;;;;;;;;;15.33;11.33;;;;;12.93;67.59;102681.59;5062338;28;63025;-81
2021/11/20 00:51:04;;;;;;;;;14.00;12.67;;;;;12.94;67.77;102671.91;5060471;28;45754;-81
2021/11/20 00:53:29;;;;;;;;;13.33;10.67;;;;;12.94;67.75;102672.78;5063171;28;45654;-80
2021/11/20 00:55:55;;;;;;;;;11.00;11.00;;;;;12.94;67.79;102667.50;5072325;28;61843;-81
2021/11/20 00:58:24;;;;;;;;;11.67;9.00;;;;;12.89;67.67;102661.19;5050909;28;45274;-80
2021/11/20 01:00:54;;;;;;;;;15.33;12.00;;;;;12.92;67.69;102653.31;5069865;28;51614;-81
2021/11/20 01:03:19;;;;;;;;;11.67;10.00;;;;;12.91;67.92;102658.56;5070839;28;45186;-80
2021/11/20 01:05:45;;;;;;;;;11.00;10.00;;;;;12.93;67.55;102662.16;5070670;28;60871;-81
2021/11/20 01:08:12;;;;;;;;;10.33;9.67;;;;;12.94;67.68;102664.84;5069428;28;45406;-80
2021/11/20 01:10:39;;;;;;;;;11.33;10.67;;;;;12.95;67.97;102660.47;5041512;28;45595;-79
2021/11/20 01:13:05;;;;;;;;;12.67;11.00;;;;;12.91;67.93;102648.88;5040795;28;45574;-80
2021/11/20 01:15:34;;;;;;;;;11.00;11.00;;;;;12.95;67.91;102653.41;5074094;28;46098;-80
2021/11/20 01:18:00;;;;;;;;;12.67;12.67;;;;;12.95;67.66;102652.50;5051937;28;45481;-80
2021/11/20 01:20:25;;;;;;;;;11.67;10.00;;;;;12.95;67.63;102648.09;5054479;28;45557;-79
2021/11/20 01:22:51;;;;;;;;;11.00;11.00;;;;;12.96;68.01;102641.06;5065701;28;45622;-80
2021/11/20 01:25:16;;;;;;;;;10.00;7.33;;;;;12.94;67.92;102632.13;5069159;28;61773;-80
2021/11/20 01:27:42;;;;;;;;;12.00;10.67;;;;;12.94;68.11;102627.72;5069025;28;45220;-79
2021/11/20 01:30:08;;;;;;;;;14.00;12.67;;;;;12.96;68.05;102635.75;5066084;28;45415;-80
2021/11/20 01:32:33;;;;;;;;;13.00;13.00;;;;;12.98;68.25;102639.34;5070902;28;45547;-80
2021/11/20 01:34:59;;;;;;;;;12.33;12.00;;;;;12.94;68.15;102633.03;5053288;28;61040;-81
2021/11/20 01:37:24;;;;;;;;;11.00;11.00;;;;;12.96;68.24;102630.44;5069324;28;61469;-81
2021/11/20 01:39:49;;;;;;;;;13.67;12.67;;;;;12.96;67.99;102631.34;5067424;28;60687;-79
2021/11/20 01:42:16;;;;;;;;;16.67;12.33;;;;;12.97;68.00;102635.78;5056842;28;45563;-80
2021/11/20 01:44:51;;;;;;;;;14.33;12.00;;;;;12.93;68.09;102625.03;5046633;28;45485;-81
2021/11/20 01:47:19;;;;;;;;;12.00;9.00;;;;;12.96;67.83;102631.34;5049893;28;45527;-80
2021/11/20 01:49:50;;;;;;;;;11.33;11.33;;;;;12.93;67.80;102636.53;5067719;28;45399;-80
2021/11/20 01:52:42;;;;;;;;;13.67;11.33;;;;;12.93;67.86;102631.22;5039355;28;45382;-81
2021/11/20 01:55:37;;;;;;;;;11.00;11.00;;;;;12.92;67.78;102629.44;5027774;28;46548;-80
2021/11/20 01:58:14;;;;;;;;;15.67;12.00;;;;;12.93;68.03;102627.69;5055059;28;45550;-81
2021/11/20 02:00:49;;;;;;;;;14.00;11.00;;;;;12.93;67.89;102619.72;5068779;28;45332;-80
2021/11/20 02:03:32;;;;;;;;;11.67;10.00;;;;;12.88;68.07;102610.75;5038961;28;45484;-79
2021/11/20 02:06:22;;;;;;;;;13.00;10.67;;;;;12.89;68.14;102612.53;5038483;28;46342;-79
2021/11/20 02:09:18;;;;;;;;;12.00;12.00;;;;;12.92;67.95;102618.84;5039301;28;45326;-79
2021/11/20 02:11:48;;;;;;;;;13.67;13.67;;;;;12.90;68.09;102615.25;5057423;28;45345;-80
2021/11/20 02:14:14;;;;;;;;;15.67;13.00;;;;;12.91;68.31;102618.81;5041393;28;45507;-80
2021/11/20 02:16:41;;;;;;;;;23.00;14.00;;;;;12.90;68.23;102614.34;5037321;28;47383;-80
2021/11/20 02:19:10;;;;;;;;;18.67;16.00;;;;;12.86;68.56;102610.72;5052504;28;45495;-79
2021/11/20 02:22:01;;;;;;;;;17.00;12.00;;;;;12.89;68.24;102616.13;5056454;28;45317;-80
2021/11/20 02:24:26;;;;;;;;;12.67;12.00;;;;;12.89;68.25;102613.47;5059134;28;45495;-79
2021/11/20 02:26:52;;;;;;;;;13.00;11.67;;;;;12.87;68.37;102609.84;5066527;28;47606;-80
2021/11/20 02:29:17;;;;;;;;;10.67;8.33;;;;;12.89;68.60;102601.94;5059015;28;56635;-80
2021/11/20 02:31:54;;;;;;;;;13.67;12.67;;;;;12.87;68.63;102601.00;5068416;28;45420;-80
2021/11/20 02:34:20;;;;;;;;;15.00;13.33;;;;;12.87;68.34;102604.53;5065202;28;45540;-80
2021/11/20 02:36:45;;;;;;;;;14.33;11.67;;;;;12.86;68.40;102602.75;5055990;28;47577;-80
2021/11/20 02:39:14;;;;;;;;;14.33;11.33;;;;;12.79;68.52;102596.38;5062864;28;59455;-80
2021/11/20 02:41:40;;;;;;;;;15.67;12.33;;;;;12.84;68.74;102604.47;5051538;28;45447;-80
2021/11/20 02:44:06;;;;;;;;;19.00;17.33;;;;;12.83;68.91;102598.25;5055961;28;45564;-80
2021/11/20 02:46:34;;;;;;;;;20.00;16.67;;;;;12.78;68.61;102583.97;5041978;28;47532;-79
2021/11/20 02:48:59;;;;;;;;;13.67;12.33;;;;;12.84;68.94;102593.88;5059465;28;45406;-80
2021/11/20 02:51:27;;;;;;;;;17.67;15.67;;;;;12.81;68.75;102581.41;5055714;28;45520;-80
2021/11/20 02:53:59;;;;;;;;;16.33;16.33;;;;;12.85;69.07;102591.25;5066628;28;45506;-80
2021/11/20 02:56:27;;;;;;;;;19.33;13.67;;;;;12.79;68.94;102577.81;5042877;28;47572;-80
2021/11/20 02:58:52;;;;;;;;;21.00;17.67;;;;;12.83;68.85;102578.78;5040034;28;45793;-81
2021/11/20 03:01:26;;;;;;;;;19.67;15.33;;;;;12.78;68.91;102565.44;5029007;28;55996;-81
2021/11/20 03:03:51;;;;;;;;;17.00;13.00;;;;;12.84;68.85;102572.66;5024994;28;45485;-81
2021/11/20 03:06:17;;;;;;;;;21.00;17.33;;;;;12.81;68.84;102564.59;5020841;28;48862;-81
2021/11/20 03:08:42;;;;;;;;;17.67;11.67;;;;;12.82;68.86;102569.03;5026277;28;53835;-81
2021/11/20 03:11:08;;;;;;;;;13.33;12.67;;;;;12.80;69.02;102570.75;5054609;28;45457;-79
2021/11/20 03:13:33;;;;;;;;;13.67;11.00;;;;;12.77;69.04;102565.34;5046852;28;58199;-80
2021/11/20 03:15:58;;;;;;;;;18.00;16.00;;;;;12.78;69.16;102561.84;5041107;28;47255;-81
2021/11/20 03:18:24;;;;;;;;;19.67;18.33;;;;;12.77;68.88;102560.06;5059039;28;45319;-80
2021/11/20 03:20:49;;;;;;;;;22.67;17.67;;;;;12.75;68.88;102560.03;5070491;28;55538;-80
2021/11/20 03:23:19;;;;;;;;;19.00;17.00;;;;;12.75;68.86;102553.81;5059384;28;45600;-80
2021/11/20 03:25:45;;;;;;;;;19.67;16.00;;;;;12.71;69.15;102550.16;5070182;28;46763;-80
2021/11/20 03:28:10;;;;;;;;;19.33;11.67;;;;;12.71;69.04;102546.63;5050349;28;62015;-80
2021/11/20 03:30:36;;;;;;;;;20.00;15.00;;;;;12.71;69.03;102539.56;5058664;28;45456;-80
2021/11/20 03:33:01;;;;;;;;;15.67;14.33;;;;;12.71;69.12;102530.72;5061708;28;45510;-81
2021/11/20 03:35:27;;;;;;;;;22.33;15.33;;;;;12.71;69.05;102531.63;5040607;28;45557;-80
2021/11/20 03:37:53;;;;;;;;;17.33;15.33;;;;;12.72;68.97;102527.22;5025049;28;45664;-80
2021/11/20 03:40:19;;;;;;;;;20.67;19.00;;;;;12.72;69.04;102522.81;5046618;28;45678;-80
2021/11/20 03:42:45;;;;;;;;;14.33;13.00;;;;;12.69;68.74;102522.72;5033604;28;45442;-80
2021/11/20 03:45:10;;;;;;;;;18.00;15.00;;;;;12.65;69.13;102514.66;5044760;28;45718;-80
2021/11/20 03:47:36;;;;;;;;;14.33;14.33;;;;;12.58;68.98;102509.16;5058197;28;45363;-80
2021/11/20 03:50:03;;;;;;;;;17.33;12.67;;;;;12.63;68.87;102506.66;5041434;28;45572;-80
2021/11/20 03:52:28;;;;;;;;;17.67;13.67;;;;;12.65;69.00;102506.69;5040649;28;45608;-81
2021/11/20 03:54:54;;;;;;;;;17.00;17.00;;;;;12.63;69.06;102504.00;5056317;28;46643;-80
2021/11/20 03:57:19;;;;;;;;;15.33;13.33;;;;;12.62;68.78;102501.28;5059535;28;45431;-80
2021/11/20 03:59:45;;;;;;;;;18.00;11.00;;;;;12.57;68.67;102502.06;5040965;28;45347;-80
2021/11/20 04:02:10;;;;;;;;;13.00;9.67;;;;;12.57;68.91;102495.88;5031676;28;45549;-81
2021/11/20 04:04:35;;;;;;;;;12.67;11.00;;;;;12.60;68.66;102506.56;5044420;28;63307;-80
2021/11/20 04:07:02;;;;;;;;;9.33;9.00;;;;;12.54;68.58;102494.03;5057324;28;66409;-79
2021/11/20 04:09:28;;;;;;;;;11.67;9.67;;;;;12.57;68.44;102495.88;5059395;28;45528;-80
2021/11/20 04:11:53;;;;;;;;;13.67;11.33;;;;;12.54;68.39;102496.69;5063773;28;56531;-79
2021/11/20 04:14:20;;;;;;;;;9.00;8.00;;;;;12.49;68.41;102489.44;5057492;28;47548;-80
2021/11/20 04:16:45;;;;;;;;;11.67;8.33;;;;;12.46;68.31;102484.94;5032913;28;45448;-80
2021/11/20 04:19:10;;;;;;;;;11.00;9.33;;;;;12.48;68.53;102488.56;5019370;28;47660;-80
2021/11/20 04:21:36;;;;;;;;;8.00;8.00;;;;;12.48;68.41;102482.34;5057447;28;45433;-79
2021/11/20 04:24:02;;;;;;;;;13.33;10.00;;;;;12.44;68.41;102468.09;5058252;28;45668;-79
2021/11/20 04:26:27;;;;;;;;;11.33;9.00;;;;;12.43;68.46;102465.41;5057900;28;45423;-78
2021/11/20 04:28:53;;;;;;;;;4.33;4.33;;;;;12.45;68.25;102477.84;5057016;28;57017;-82
2021/11/20 04:31:24;;;;;;;;;10.67;8.00;;;;;12.45;68.27;102467.25;5063918;28;45409;-81
2021/11/20 04:33:49;;;;;;;;;10.00;8.00;;;;;12.41;68.24;102465.38;5063361;28;50864;-81
2021/11/20 04:36:15;;;;;;;;;11.67;6.00;;;;;12.35;68.28;102457.22;5057641;28;45464;-81
2021/11/20 04:38:40;;;;;;;;;14.33;8.00;;;;;12.37;68.30;102465.25;5028859;28;59175;-83
2021/11/20 04:41:06;;;;;;;;;5.00;5.00;;;;;12.33;68.13;102465.13;5064132;28;45298;-81
2021/11/20 04:43:31;;;;;;;;;8.33;5.00;;;;;12.36;68.27;102460.78;5042636;28;51988;-81
2021/11/20 04:45:57;;;;;;;;;7.33;5.00;;;;;12.33;67.95;102457.19;5069907;28;45329;-81
2021/11/20 04:48:22;;;;;;;;;5.00;5.00;;;;;12.28;68.36;102447.31;5040689;28;45942;-81
2021/11/20 04:50:48;;;;;;;;;4.33;4.00;;;;;12.25;68.17;102444.56;5039667;28;45402;-81
2021/11/20 04:53:13;;;;;;;;;7.33;5.00;;;;;12.31;68.32;102460.66;5040429;28;46080;-81
2021/11/20 04:55:39;;;;;;;;;9.67;6.00;;;;;12.29;68.14;102447.34;5019950;28;45647;-81
2021/11/20 04:58:04;;;;;;;;;7.00;6.67;;;;;12.33;68.14;102446.59;5014825;28;59555;-82
2021/11/20 05:00:36;;;;;;;;;13.00;9.00;;;;;12.32;67.96;102442.16;5039080;28;49336;-81
2021/11/20 05:03:05;;;;;;;;;8.00;8.00;;;;;12.32;68.14;102450.09;5023546;28;46613;-82
2021/11/20 05:05:32;;;;;;;;;4.33;4.33;;;;;12.33;68.14;102445.72;5049848;28;45300;-82
2021/11/20 05:07:58;;;;;;;;;8.00;6.00;;;;;12.28;68.11;102442.03;5033408;28;45391;-81
2021/11/20 05:10:23;;;;;;;;;5.00;5.00;;;;;12.27;67.89;102429.63;5047008;28;45350;-83
2021/11/20 05:12:48;;;;;;;;;8.00;8.00;;;;;12.31;68.23;102436.81;5066972;28;63692;-81
2021/11/20 05:15:14;;;;;;;;;8.67;7.33;;;;;12.32;68.14;102443.91;5161626;22;64308;-81
2021/11/20 05:17:39;;;;;;;;;8.00;8.00;;;;;12.30;68.07;102440.31;5043614;28;45219;-81
2021/11/20 05:20:07;;;;;;;;;6.00;4.67;;;;;12.31;67.96;102440.38;5056556;28;45532;-81
2021/11/20 05:22:33;;;;;;;;;8.00;5.67;;;;;12.33;67.95;102446.59;5056835;28;46569;-82
2021/11/20 05:24:58;;;;;;;;;6.00;5.00;;;;;12.33;67.84;102441.31;5059963;28;45564;-82
2021/11/20 05:27:23;;;;;;;;;7.00;7.00;;;;;12.25;67.99;102428.66;5068240;28;45886;-81
2021/11/20 05:30:05;;;;;;;;;7.33;7.33;;;;;12.32;67.79;102438.63;5071307;28;45352;-81
2021/11/20 05:32:31;;;;;;;;;8.00;4.00;;;;;12.32;67.89;102435.97;5054007;28;46478;-81
2021/11/20 05:34:57;;;;;;;;;6.33;5.00;;;;;12.32;67.63;102435.97;5055115;28;45290;-83
2021/11/20 05:37:23;;;;;;;;;6.67;4.67;;;;;12.30;67.83;102425.34;5056244;28;56454;-84
2021/11/20 05:39:49;;;;;;;;;5.00;5.00;;;;;12.32;68.03;102425.38;5055959;28;45372;-81
2021/11/20 05:42:14;;;;;;;;;5.00;5.00;;;;;12.27;67.85;102414.66;5055829;28;60430;-82
2021/11/20 05:44:39;;;;;;;;;6.00;4.67;;;;;12.29;67.76;102425.28;5057191;28;57353;-81
2021/11/20 05:47:05;;;;;;;;;8.00;4.00;;;;;12.27;67.74;102424.34;5071670;28;45969;-82
2021/11/20 05:49:32;;;;;;;;;9.33;4.00;;;;;12.26;67.91;102423.44;5056887;28;45554;-81
2021/11/20 05:51:58;;;;;;;;;4.67;4.00;;;;;12.19;67.92;102424.09;5056340;28;46679;-83
2021/11/20 05:54:24;;;;;;;;;9.00;8.00;;;;;12.20;67.85;102423.28;5055215;28;45322;-81
2021/11/20 05:56:50;;;;;;;;;4.00;4.00;;;;;12.21;67.95;102429.47;5047223;28;45511;-82
2021/11/20 05:59:15;;;;;;;;;5.00;4.00;;;;;12.19;67.86;102421.44;5064774;28;45492;-81
2021/11/20 06:01:41;;;;;;;;;4.33;4.00;;;;;12.22;67.74;102418.91;5056132;28;46439;-81
2021/11/20 06:04:07;;;;;;;;;5.00;5.00;;;;;12.24;67.91;102418.94;5055024;28;45563;-82
2021/11/20 06:06:32;;;;;;;;;5.33;5.00;;;;;12.24;67.98;102424.22;5055463;28;62104;-83
2021/11/20 06:08:57;;;;;;;;;5.00;4.00;;;;;12.22;67.84;102426.84;5058266;28;53100;-83
2021/11/20 06:11:23;;;;;;;;;5.00;5.00;;;;;12.23;67.96;102425.09;5056460;28;55813;-82
2021/11/20 06:13:48;;;;;;;;;6.00;6.00;;;;;12.19;67.91;102420.56;5061264;28;45481;-81
2021/11/20 06:16:14;;;;;;;;;6.00;6.00;;;;;12.19;67.91;102420.56;5065859;28;48704;-81
2021/11/20 06:18:39;;;;;;;;;7.33;5.67;;;;;12.24;67.85;102421.59;5061451;28;45511;-80
2021/11/20 06:21:05;;;;;;;;;5.00;5.00;;;;;12.24;68.02;102425.13;5027445;28;47601;-81
2021/11/20 06:23:31;;;;;;;;;7.33;4.33;;;;;12.24;67.93;102418.94;5056295;28;45141;-83
2021/11/20 06:25:56;;;;;;;;;5.33;4.00;;;;;12.14;67.75;102398.34;5044376;28;47337;-81
2021/11/20 06:28:22;;;;;;;;;6.33;6.33;;;;;12.25;67.88;102420.72;5063725;28;45460;-84
2021/11/20 06:30:47;;;;;;;;;6.00;6.00;;;;;12.24;67.81;102418.94;5058688;28;53114;-80
2021/11/20 06:33:14;;;;;;;;;9.00;5.67;;;;;12.24;67.68;102424.22;5056021;28;58605;-80
2021/11/20 06:35:39;;;;;;;;;7.67;7.67;;;;;12.21;67.80;102413.56;5066455;28;45357;-81
2021/11/20 06:38:05;;;;;;;;;5.33;5.33;;;;;12.25;67.79;102426.03;5065858;28;45514;-80
2021/11/20 06:40:36;;;;;;;;;6.00;6.00;;;;;12.21;67.64;102424.16;5060443;28;47940;-75
2021/11/20 06:43:03;;;;;;;;;11.00;8.00;;;;;12.11;67.76;102430.94;5059307;28;45558;-74
2021/11/20 06:45:34;;;;;;;;;9.00;5.00;;;;;11.97;67.90;102413.72;5072209;28;45367;-75
2021/11/20 06:47:59;;;;;;;;;5.67;4.00;;;;;11.90;68.30;102422.31;5065764;28;45494;-74
2021/11/20 06:50:25;;;;;;;;;8.67;7.67;;;;;11.82;68.31;102424.72;5064121;28;46738;-74
2021/11/20 06:52:51;;;;;;;;;10.00;8.33;;;;;11.74;68.18;102415.63;5063239;28;45509;-74
2021/11/20 06:55:16;;;;;;;;;9.67;9.00;;;;;11.69;68.57;102406.63;5058130;28;45184;-76
2021/11/20 07:00:28;;;;;;;;;10.00;9.33;;;;;11.61;68.56;102414.34;5060549;28;45776;-75
2021/11/20 07:03:03;;;;;;;;;10.00;10.00;;;;;11.55;68.96;102406.19;5067455;28;45318;-74
2021/11/20 07:05:30;;;;;;;;;11.33;10.00;;;;;11.51;69.41;102409.59;5070830;28;45623;-75
2021/11/20 07:07:57;;;;;;;;;13.33;10.67;;;;;11.42;69.58;102398.72;5062653;28;45609;-74
2021/11/20 07:10:22;;;;;;;;;8.33;8.33;;;;;11.43;69.69;102392.56;5056435;28;47580;-76
2021/11/20 07:12:51;;;;;;;;;16.33;12.00;;;;;11.40;69.67;102403.03;5056301;28;45457;-73
2021/11/20 07:15:16;;;;;;;;;15.67;10.00;;;;;11.36;69.89;102399.41;5055700;28;45489;-73
2021/11/20 07:17:42;;;;;;;;;10.33;10.33;;;;;11.34;70.35;102405.47;5058748;28;45467;-74
2021/11/20 07:20:08;;;;;;;;;16.00;12.00;;;;;11.33;70.25;102403.69;5056146;28;45544;-75
2021/11/20 07:22:34;;;;;;;;;14.33;9.33;;;;;11.31;70.08;102405.41;5062072;28;45927;-74
2021/11/20 07:25:00;;;;;;;;;10.33;10.33;;;;;11.28;70.45;102408.81;5062290;28;45511;-73
2021/11/20 07:27:25;;;;;;;;;13.00;9.00;;;;;11.23;70.53;102410.41;5058821;28;45543;-75
2021/11/20 07:29:51;;;;;;;;;19.33;13.00;;;;;11.21;70.41;102417.41;5058247;28;62983;-74
2021/11/20 07:32:16;;;;;;;;;15.33;11.67;;;;;11.18;70.85;102412.91;5058661;28;45520;-74
2021/11/20 07:34:42;;;;;;;;;14.00;12.00;;;;;11.20;70.83;102415.63;5060467;28;59079;-75
2021/11/20 07:37:07;;;;;;;;;9.67;7.33;;;;;11.20;70.74;102412.97;5059819;28;52024;-75
2021/11/20 07:39:33;;;;;;;;;19.67;15.67;;;;;11.22;70.71;102416.56;5066867;28;45407;-73
2021/11/20 07:41:58;;;;;;;;;21.33;15.00;;;;;11.23;70.88;102418.34;5059944;28;45493;-74
2021/11/20 07:44:23;;;;;;;;;14.67;12.33;;;;;11.23;70.84;102423.63;5059765;28;45771;-73
2021/11/20 07:46:49;;;;;;;;;17.00;14.00;;;;;11.23;70.95;102410.41;5062602;28;46272;-75
2021/11/20 07:49:14;;;;;;;;;17.33;11.67;;;;;11.19;70.95;102413.84;5062803;28;63297;-73
2021/11/20 07:51:40;;;;;;;;;10.33;10.33;;;;;11.21;71.22;102413.03;5060637;28;45439;-73
2021/11/20 07:54:06;;;;;;;;;20.00;14.67;;;;;11.20;71.21;102424.44;5060776;28;45452;-74
2021/11/20 07:56:31;;;;;;;;;16.67;14.33;;;;;11.16;71.34;102413.72;5070739;28;45495;-75
2021/11/20 07:58:58;;;;;;;;;17.33;13.33;;;;;11.14;71.02;102404.84;5058414;28;45572;-75
2021/11/20 08:01:24;;;;;;;;;17.00;16.00;;;;;11.19;71.82;102422.66;5057388;28;45460;-73
2021/11/20 08:03:50;;;;;;;;;14.33;12.00;;;;;11.15;71.40;102410.16;5058961;28;45156;-73
2021/11/20 08:06:15;;;;;;;;;22.00;13.00;;;;;11.17;71.90;102415.50;5058320;28;45520;-75
2021/11/20 08:08:40;;;;;;;;;14.33;12.33;;;;;11.17;71.45;102426.06;5071969;28;45533;-74
2021/11/20 08:11:06;;;;;;;;;17.33;12.00;;;;;11.19;71.48;102420.00;5060490;28;58100;-75
2021/11/20 08:13:35;;;;;;;;;16.33;12.33;;;;;11.21;71.75;102422.69;5060369;28;45539;-75
2021/11/20 08:16:00;;;;;;;;;28.33;14.33;;;;;11.22;71.40;102417.44;5048534;28;45517;-74
2021/11/20 08:18:25;;;;;;;;;18.67;12.33;;;;;11.17;71.18;102405.81;5062107;28;60699;-75
2021/11/20 08:20:51;;;;;;;;;16.67;15.67;;;;;11.27;70.95;102418.50;5059216;28;45507;-74
2021/11/20 08:23:16;;;;;;;;;18.33;15.33;;;;;11.29;70.76;102426.47;5055621;28;54201;-73
2021/11/20 08:25:43;;;;;;;;;20.33;17.67;;;;;11.28;70.75;102417.66;5056892;28;45680;-72
2021/11/20 08:28:10;;;;;;;;;15.67;11.33;;;;;11.29;70.52;102405.31;5056378;28;45519;-73
2021/11/20 08:30:35;;;;;;;;;14.67;12.67;;;;;11.39;70.16;102409.19;5056316;28;45567;-73
2021/11/20 08:33:01;;;;;;;;;14.67;11.00;;;;;11.36;70.02;102403.81;5056574;28;45471;-75
2021/11/20 08:35:27;;;;;;;;;15.67;12.00;;;;;11.23;69.99;102398.09;5055953;28;45603;-74
2021/11/20 08:37:52;;;;;;;;;16.00;11.00;;;;;11.21;70.33;102399.81;5061873;28;46638;-76
2021/11/20 08:40:20;;;;;;;;;17.67;14.67;;;;;11.11;70.48;102394.16;5060149;28;45503;-75
2021/11/20 08:42:46;;;;;;;;;16.33;13.33;;;;;11.08;71.26;102402.88;5059231;28;45604;-73
2021/11/20 08:45:13;;;;;;;;;16.33;13.33;;;;;11.02;71.30;102384.16;5056545;28;45633;-76
2021/11/20 08:47:39;;;;;;;;;15.67;14.67;;;;;10.97;71.29;102373.44;5055995;28;49603;-75
2021/11/20 08:50:09;;;;;;;;;24.00;15.75;;;;;11.01;72.00;102379.72;5053013;28;63518;-76
2021/11/20 08:52:34;;;;;;;;;14.33;13.67;;;;;11.00;71.76;102370.91;5052691;28;45547;-77
2021/11/20 08:54:59;;;;;;;;;21.00;16.00;;;;;10.99;72.13;102374.38;5058728;28;45674;-77
2021/11/20 08:57:25;;;;;;;;;17.67;14.00;;;;;10.99;71.79;102366.47;5054538;28;67128;-76
2021/11/20 08:59:50;;;;;;;;;15.25;14.75;;;;;10.97;72.17;102360.25;5060163;28;45546;-76
2021/11/20 09:02:21;;;;;;;;;23.00;18.33;;;;;10.98;71.95;102356.75;5058894;28;45499;-77
2021/11/20 09:04:51;;;;;;;;;18.25;11.25;;;;;11.00;72.30;102360.31;5058678;28;45622;-79
2021/11/20 09:07:17;;;;;;;;;19.00;15.33;;;;;11.01;71.89;102348.91;5067248;28;47867;-82
2021/11/20 09:10:07;;;;;;;;;17.00;15.67;;;;;11.08;71.41;102333.22;5060551;28;45445;-79
2021/11/20 09:12:47;;;;;;;;;17.00;12.67;;;;;11.23;71.25;102358.44;5066662;28;45457;-81
2021/11/20 09:15:55;;;;;;;;;14.00;13.00;;;;;11.37;70.70;102352.72;5064197;28;45207;-80
2021/11/20 09:18:23;;;;;;;;;10.33;10.33;;;;;11.43;70.73;102344.97;5058762;28;46851;-77
2021/11/20 09:20:52;;;;;;;;;11.00;10.67;;;;;11.54;70.64;102346.19;5041327;28;45496;-78
2021/11/20 09:23:18;;;;;;;;;15.67;12.00;;;;;11.67;70.11;102352.78;5048637;28;45459;-77
2021/11/20 09:25:44;;;;;;;;;14.00;11.00;;;;;11.74;70.04;102347.72;5057906;28;45548;-77
2021/11/20 09:28:10;;;;;;;;;14.33;12.33;;;;;11.80;69.64;102347.91;5058562;28;46225;-77
2021/11/20 09:30:38;;;;;;;;;18.67;14.67;;;;;11.85;69.63;102344.53;5053089;28;45695;-77
2021/11/20 09:33:03;;;;;;;;;15.33;12.67;;;;;11.90;69.49;102343.81;5058245;28;45480;-76
2021/11/20 09:35:29;;;;;;;;;14.67;12.33;;;;;11.97;69.29;102348.44;5062036;28;45373;-77
2021/11/20 09:37:54;;;;;;;;;13.67;11.33;;;;;12.02;69.03;102343.28;5063313;28;48026;-77
2021/11/20 09:40:20;;;;;;;;;16.33;11.33;;;;;12.05;69.08;102328.38;5066178;28;45518;-76
2021/11/20 09:42:55;;;;;;;;;14.33;10.67;;;;;12.15;68.78;102334.84;5033162;28;45499;-77
2021/11/20 09:45:25;;;;;;;;;15.00;9.67;;;;;12.14;68.89;102325.09;5055055;28;45479;-79
2021/11/20 09:47:53;;;;;;;;;10.67;10.33;;;;;12.24;68.61;102336.84;5038140;28;46402;-79
2021/11/20 09:50:32;;;;;;;;;12.00;10.00;;;;;12.28;68.46;102338.72;5046746;28;45384;-76
2021/11/20 09:52:58;;;;;;;;;11.33;9.67;;;;;12.32;68.35;102324.72;5066492;28;46692;-75
2021/11/20 09:55:27;;;;;;;;;14.00;11.00;;;;;12.39;68.27;102323.13;5069324;28;45572;-74
2021/11/20 09:58:03;;;;;;;;;12.00;11.00;;;;;12.39;68.04;102308.13;5061558;28;47722;-76
2021/11/20 10:00:40;;;;;;;;;12.33;11.00;;;;;12.49;68.02;102318.13;5054442;28;45823;-76
2021/11/20 10:03:08;;;;;;;;;13.33;10.67;;;;;12.49;68.04;102309.28;5055522;28;45606;-76
2021/11/20 10:05:39;;;;;;;;;12.33;11.33;;;;;12.57;68.10;102311.28;5049893;28;45737;-77
2021/11/20 10:08:14;;;;;;;;;18.67;13.00;;;;;12.62;67.85;102308.75;5056786;28;46531;-76
2021/11/20 10:10:43;;;;;;;;;13.00;12.00;;;;;12.68;67.50;102308.03;5046224;28;45767;-77
2021/11/20 10:13:12;;;;;;;;;17.33;12.00;;;;;12.69;67.56;102294.81;5062666;28;45301;-77
2021/11/20 10:16:24;;;;;;;;;16.67;13.00;;;;;12.76;67.33;102294.09;5061195;28;45322;-77
2021/11/20 10:18:54;;;;;;;;;14.33;13.33;;;;;12.80;67.41;102287.13;5054736;28;46783;-76
2021/11/20 10:21:38;;;;;;;;;14.67;13.00;;;;;12.82;67.24;102288.06;5045620;28;45478;-77
2021/11/20 10:24:34;;;;;;;;;15.00;13.00;;;;;12.82;67.05;102281.00;5060993;28;45555;-77
2021/11/20 10:27:08;;;;;;;;;19.33;18.00;;;;;12.84;67.38;102281.06;5054388;28;45498;-78
2021/11/20 10:29:49;;;;;;;;;14.67;13.00;;;;;12.84;67.20;102283.72;5039860;28;47920;-77
2021/11/20 10:32:18;;;;;;;;;11.67;11.67;;;;;12.84;66.97;102279.31;5065261;28;45551;-77
2021/11/20 10:34:51;;;;;;;;;18.67;14.67;;;;;12.85;66.68;102274.91;5058163;28;45541;-78
2021/11/20 10:37:41;;;;;;;;;18.67;17.33;;;;;12.81;66.94;102276.56;5053224;28;45380;-76
2021/11/20 10:40:25;;;;;;;;;19.67;16.67;;;;;12.87;67.14;102269.63;5054379;28;46446;-77
2021/11/20 10:42:54;;;;;;;;;14.33;13.00;;;;;12.89;67.02;102273.19;5061651;28;45594;-77
2021/11/20 10:45:30;;;;;;;;;15.67;13.67;;;;;12.86;66.94;102266.06;5056123;28;45610;-78
2021/11/20 10:48:22;;;;;;;;;14.33;12.67;;;;;12.87;66.56;102261.66;5057915;28;45652;-77
2021/11/20 10:50:50;;;;;;;;;17.33;16.33;;;;;12.83;67.06;102252.72;5055758;28;46756;-77
2021/11/20 10:53:28;;;;;;;;;16.00;14.00;;;;;12.88;66.64;102266.09;5053354;28;45732;-77
2021/11/20 10:56:24;;;;;;;;;16.67;16.33;;;;;12.88;66.74;102259.03;5053312;28;45917;-76
2021/11/20 10:59:05;;;;;;;;;17.33;17.33;;;;;12.84;66.67;102254.56;5053131;28;45603;-77
2021/11/20 11:02:04;;;;;;;;;17.67;14.00;;;;;12.84;66.79;102249.25;5060302;28;47068;-77
2021/11/20 11:04:56;;;;;;;;;18.33;16.67;;;;;12.84;66.54;102234.25;5055853;28;45346;-78
2021/11/20 11:07:29;;;;;;;;;21.33;16.67;;;;;12.83;66.62;102228.88;5037321;28;45584;-76
2021/11/20 11:10:15;;;;;;;;;16.33;15.67;;;;;12.81;66.51;102212.94;5039272;28;45456;-76
2021/11/20 11:12:40;;;;;;;;;18.33;15.33;;;;;12.82;66.51;102227.09;5044218;28;46567;-77
2021/11/20 11:15:21;;;;;;;;;19.00;14.33;;;;;12.80;66.52;102223.53;5060555;28;45444;-76
2021/11/20 11:18:27;;;;;;;;;19.33;17.00;;;;;12.78;66.55;102212.88;5060097;28;45598;-76
2021/11/20 11:21:20;;;;;;;;;20.67;17.00;;;;;12.78;66.34;102201.38;5057195;28;45825;-77
2021/11/20 11:24:09;;;;;;;;;21.33;17.67;;;;;12.75;66.69;102196.91;5048950;28;46436;-78
2021/11/20 11:26:56;;;;;;;;;22.00;18.00;;;;;12.73;66.73;102195.97;5071632;28;45377;-76